Time;durP1;ratioP1;P1;durP2;ratioP2;P2;SDS_P1;SDS_P2;PMS_P1;PMS_P2;Temp;Humidity;BMP_temperature;BMP_pressure;BME280_temperature;BME280_humidity;BME280_pressure;Samples;Min_cycle;Max_cycle;Signal;HPM_P1;HPM_P2
2023/05/11 00:01:22;;;;;;;1.50;1.00;;;14.40;98.20;;;;;;4957205;28;20498;-74
2023/05/11 00:04:13;;;;;;;1.50;0.97;;;14.40;98.20;;;;;;4969500;28;20469;-74
2023/05/11 00:06:41;;;;;;;1.50;1.10;;;14.30;98.20;;;;;;4946414;28;21179;-73
2023/05/11 00:09:08;;;;;;;1.50;1.10;;;14.20;98.20;;;;;;4977097;28;20809;-73
2023/05/11 00:11:35;;;;;;;1.50;1.00;;;14.20;98.20;;;;;;4956148;28;20767;-73
2023/05/11 00:14:02;;;;;;;1.50;1.00;;;14.10;98.20;;;;;;4966367;28;20505;-74
2023/05/11 00:16:29;;;;;;;1.50;1.10;;;14.10;98.20;;;;;;4964792;28;20584;-74
2023/05/11 00:18:55;;;;;;;1.50;1.00;;;14.00;98.20;;;;;;4968213;28;20549;-73
2023/05/11 00:21:22;;;;;;;1.50;1.00;;;14.00;98.20;;;;;;4956585;28;20582;-72
2023/05/11 00:23:51;;;;;;;1.50;1.10;;;14.00;98.20;;;;;;4968601;28;20841;-73
2023/05/11 00:26:17;;;;;;;1.50;0.90;;;13.90;98.20;;;;;;4967668;28;20659;-73
2023/05/11 00:28:45;;;;;;;1.50;0.93;;;13.90;98.20;;;;;;4982127;28;20463;-73
2023/05/11 00:31:11;;;;;;;1.50;1.00;;;13.90;98.20;;;;;;4969910;28;20521;-73
2023/05/11 00:33:38;;;;;;;1.50;1.10;;;13.80;98.20;;;;;;4967830;28;20472;-73
2023/05/11 00:36:06;;;;;;;1.50;1.00;;;13.80;98.20;;;;;;4967097;28;20485;-73
2023/05/11 00:38:35;;;;;;;1.50;1.00;;;13.70;98.20;;;;;;4961318;28;20490;-73
2023/05/11 00:41:03;;;;;;;1.50;1.00;;;13.70;98.20;;;;;;4968671;28;20465;-73
2023/05/11 00:43:30;;;;;;;1.50;1.00;;;13.70;98.20;;;;;;4964339;28;20476;-73
2023/05/11 00:45:57;;;;;;;1.50;1.00;;;13.70;98.20;;;;;;4967853;28;20481;-73
2023/05/11 00:48:23;;;;;;;1.50;1.00;;;13.70;98.20;;;;;;4966687;28;20855;-73
2023/05/11 00:50:51;;;;;;;1.50;1.00;;;13.60;98.20;;;;;;4970282;28;20472;-73
2023/05/11 00:53:17;;;;;;;1.50;1.00;;;13.60;98.20;;;;;;4956272;28;20970;-73
2023/05/11 00:55:45;;;;;;;1.50;1.00;;;13.60;98.20;;;;;;4976540;28;20497;-74
2023/05/11 00:58:19;;;;;;;1.53;1.00;;;13.60;98.20;;;;;;4954874;28;20492;-72
2023/05/11 01:00:47;;;;;;;1.50;1.00;;;13.60;98.20;;;;;;4971211;28;20465;-74
2023/05/11 01:03:14;;;;;;;1.50;1.10;;;13.60;98.20;;;;;;4940857;28;20482;-72
2023/05/11 01:05:45;;;;;;;1.50;1.00;;;13.60;98.20;;;;;;4983588;28;20476;-73
2023/05/11 01:08:17;;;;;;;1.50;1.00;;;13.60;98.20;;;;;;4950282;28;20552;-73
2023/05/11 01:10:53;;;;;;;1.50;0.93;;;13.60;98.20;;;;;;4967638;28;20469;-72
2023/05/11 01:13:30;;;;;;;1.50;1.00;;;13.60;98.20;;;;;;4944731;28;20483;-72
2023/05/11 01:15:57;;;;;;;1.53;1.00;;;13.60;98.20;;;;;;4962668;28;20482;-75
2023/05/11 01:18:28;;;;;;;1.60;1.10;;;13.60;98.20;;;;;;4979849;28;20489;-76
2023/05/11 01:21:01;;;;;;;1.50;1.00;;;13.60;98.20;;;;;;4969628;28;20469;-76
2023/05/11 01:24:04;;;;;;;1.50;1.00;;;13.60;98.20;;;;;;4980557;28;21263;-77
2023/05/11 01:26:43;;;;;;;1.50;1.00;;;13.60;98.20;;;;;;4953278;28;20478;-76
2023/05/11 01:29:44;;;;;;;1.50;1.00;;;13.60;98.20;;;;;;4956709;28;20465;-76
2023/05/11 01:32:16;;;;;;;1.50;1.00;;;13.60;98.20;;;;;;4965731;28;20565;-75
2023/05/11 01:34:44;;;;;;;1.53;1.10;;;13.50;98.20;;;;;;4970392;28;20680;-75
2023/05/11 01:37:15;;;;;;;1.50;1.00;;;13.50;98.20;;;;;;4970659;28;20514;-76
2023/05/11 01:39:50;;;;;;;1.50;1.00;;;13.50;98.20;;;;;;4953482;28;20569;-76
2023/05/11 01:42:24;;;;;;;1.50;1.10;;;13.50;98.20;;;;;;4955514;28;20497;-75
2023/05/11 01:44:54;;;;;;;1.53;1.03;;;13.50;98.20;;;;;;4957235;28;20532;-77
2023/05/11 01:47:23;;;;;;;1.50;1.03;;;13.50;98.20;;;;;;4947924;28;20486;-76
2023/05/11 01:49:51;;;;;;;1.50;1.10;;;13.40;98.20;;;;;;4960596;28;20473;-75
2023/05/11 01:52:21;;;;;;;1.53;1.10;;;13.30;98.20;;;;;;4950051;28;20779;-76
2023/05/11 01:54:49;;;;;;;1.50;1.00;;;13.30;98.20;;;;;;4956363;28;20487;-76
2023/05/11 01:57:17;;;;;;;1.50;1.00;;;13.30;98.20;;;;;;4958126;28;20482;-76
2023/05/11 01:59:45;;;;;;;1.50;1.10;;;13.30;98.20;;;;;;4964110;28;20970;-76
2023/05/11 02:02:13;;;;;;;1.50;1.00;;;13.30;98.20;;;;;;4953836;28;20486;-76
2023/05/11 02:04:43;;;;;;;1.53;1.07;;;13.20;98.20;;;;;;4961128;28;20494;-77
2023/05/11 02:07:12;;;;;;;1.53;1.00;;;13.20;98.20;;;;;;4953297;28;20871;-75
2023/05/11 02:09:40;;;;;;;1.50;1.00;;;13.20;98.20;;;;;;4971270;28;20772;-77
2023/05/11 02:12:09;;;;;;;1.50;1.00;;;13.10;98.20;;;;;;4948044;28;20574;-75
2023/05/11 02:14:38;;;;;;;1.53;1.13;;;13.10;98.20;;;;;;4965723;28;20644;-77
2023/05/11 02:17:06;;;;;;;1.50;1.00;;;13.10;98.20;;;;;;4945310;28;20478;-77
2023/05/11 02:19:35;;;;;;;1.50;1.00;;;13.10;98.20;;;;;;4965464;28;20470;-77
2023/05/11 02:22:05;;;;;;;1.50;1.10;;;13.10;98.20;;;;;;4953317;28;20508;-76
2023/05/11 02:24:33;;;;;;;1.50;1.00;;;13.10;98.20;;;;;;4966848;28;20500;-77
2023/05/11 02:27:00;;;;;;;1.50;1.00;;;13.10;98.20;;;;;;4953511;28;20584;-77
2023/05/11 02:29:27;;;;;;;1.50;1.00;;;13.10;98.20;;;;;;4967365;28;20576;-76
2023/05/11 02:32:01;;;;;;;1.53;1.10;;;13.10;98.20;;;;;;4953117;28;20536;-78
2023/05/11 02:34:32;;;;;;;1.50;1.00;;;13.10;98.20;;;;;;4967292;28;20492;-77
2023/05/11 02:37:03;;;;;;;1.50;1.10;;;13.10;98.20;;;;;;4954506;28;21012;-77
2023/05/11 02:39:35;;;;;;;1.50;0.90;;;13.10;98.20;;;;;;4967502;28;20525;-77
2023/05/11 02:42:09;;;;;;;1.50;1.00;;;13.10;98.20;;;;;;4950673;28;21025;-77
2023/05/11 02:44:38;;;;;;;1.60;1.10;;;13.10;98.20;;;;;;4966801;28;20864;-77
2023/05/11 02:47:09;;;;;;;1.50;1.00;;;13.10;98.20;;;;;;4953479;28;20564;-77
2023/05/11 02:49:38;;;;;;;1.50;1.00;;;13.00;98.20;;;;;;4966737;28;20469;-76
2023/05/11 02:52:07;;;;;;;1.50;1.00;;;13.00;98.20;;;;;;4947708;28;20539;-78
2023/05/11 02:54:37;;;;;;;1.50;1.00;;;13.00;98.20;;;;;;4966707;28;20478;-78
2023/05/11 02:57:04;;;;;;;1.50;1.00;;;13.00;98.20;;;;;;4948981;28;20482;-77
2023/05/11 02:59:32;;;;;;;1.53;1.10;;;12.90;98.20;;;;;;4967386;28;20490;-77
2023/05/11 03:02:00;;;;;;;1.53;1.10;;;12.90;98.20;;;;;;4949036;28;20563;-77
2023/05/11 03:04:28;;;;;;;1.60;1.10;;;12.90;98.20;;;;;;4964386;28;20482;-77
2023/05/11 03:06:55;;;;;;;1.53;1.10;;;12.90;98.20;;;;;;4954228;28;20840;-78
2023/05/11 03:09:22;;;;;;;1.50;1.00;;;12.80;98.20;;;;;;4968001;28;20533;-78
2023/05/11 03:11:51;;;;;;;1.57;1.03;;;12.80;98.20;;;;;;4961728;28;20489;-77
2023/05/11 03:14:18;;;;;;;1.53;1.10;;;12.70;98.20;;;;;;4956257;28;20488;-78
2023/05/11 03:16:45;;;;;;;1.57;1.00;;;12.70;98.20;;;;;;4956736;28;20483;-78
2023/05/11 03:19:14;;;;;;;1.50;1.03;;;12.70;98.20;;;;;;4969622;28;20569;-78
2023/05/11 03:21:41;;;;;;;1.53;1.00;;;12.70;98.20;;;;;;4955503;28;20556;-77
2023/05/11 03:24:08;;;;;;;1.57;1.10;;;12.70;98.20;;;;;;4974397;28;20490;-77
2023/05/11 03:26:36;;;;;;;1.50;1.00;;;12.70;98.20;;;;;;4954804;28;20488;-77
2023/05/11 03:29:07;;;;;;;1.50;1.00;;;12.70;98.20;;;;;;4961694;28;20462;-78
2023/05/11 03:31:34;;;;;;;1.60;1.10;;;12.60;98.20;;;;;;4957400;28;20538;-78
2023/05/11 03:34:00;;;;;;;1.50;1.00;;;12.70;98.20;;;;;;4969515;28;20470;-77
2023/05/11 03:36:28;;;;;;;1.60;1.30;;;12.60;98.20;;;;;;4955744;28;20558;-78
2023/05/11 03:38:57;;;;;;;1.53;1.10;;;12.60;98.20;;;;;;4971236;28;20494;-78
2023/05/11 03:41:27;;;;;;;1.50;1.00;;;12.60;98.20;;;;;;4957409;28;20478;-79
2023/05/11 03:43:56;;;;;;;1.57;1.10;;;12.60;98.20;;;;;;4965868;28;20473;-77
2023/05/11 03:46:25;;;;;;;1.50;1.00;;;12.60;98.20;;;;;;4964844;28;20731;-79
2023/05/11 03:48:52;;;;;;;1.50;1.00;;;12.60;98.20;;;;;;4988639;28;20466;-79
2023/05/11 03:51:20;;;;;;;1.50;1.10;;;12.60;98.20;;;;;;4974559;28;20485;-78
2023/05/11 03:53:47;;;;;;;1.50;1.00;;;12.60;98.20;;;;;;4974718;28;20457;-78
2023/05/11 03:56:14;;;;;;;1.53;1.00;;;12.60;98.20;;;;;;4969894;28;20478;-78
2023/05/11 03:58:41;;;;;;;1.50;1.00;;;12.60;98.20;;;;;;4976736;28;20493;-78
2023/05/11 04:01:08;;;;;;;1.57;1.10;;;12.70;98.20;;;;;;4970545;28;20487;-77
2023/05/11 04:03:48;;;;;;;1.60;1.10;;;12.70;98.20;;;;;;4976860;28;20465;-76
2023/05/11 04:06:15;;;;;;;1.57;1.10;;;12.70;98.20;;;;;;4982267;28;20466;-79
2023/05/11 04:08:42;;;;;;;1.50;1.00;;;12.70;98.20;;;;;;4980910;28;20454;-79
2023/05/11 04:11:09;;;;;;;1.50;1.10;;;12.70;98.20;;;;;;4973886;28;20480;-77
2023/05/11 04:13:36;;;;;;;1.50;1.00;;;12.80;98.20;;;;;;4964395;28;20500;-77
2023/05/11 04:16:02;;;;;;;1.60;1.10;;;12.80;98.20;;;;;;4960873;28;20509;-77
2023/05/11 04:18:29;;;;;;;1.50;1.00;;;12.80;98.20;;;;;;4967300;28;20548;-78
2023/05/11 04:20:57;;;;;;;1.53;1.10;;;12.80;98.20;;;;;;4964869;28;20593;-77
2023/05/11 04:23:24;;;;;;;1.50;1.03;;;12.90;98.20;;;;;;4966089;28;20465;-78
2023/05/11 04:25:54;;;;;;;1.50;1.00;;;12.90;98.20;;;;;;4964112;28;20494;-78
2023/05/11 04:28:22;;;;;;;1.50;1.00;;;12.90;98.20;;;;;;4970894;28;20474;-78
2023/05/11 04:30:53;;;;;;;1.50;1.00;;;12.90;98.20;;;;;;4967031;28;20522;-77
2023/05/11 04:33:20;;;;;;;1.50;1.00;;;12.90;98.20;;;;;;4953203;28;20474;-77
2023/05/11 04:35:49;;;;;;;1.57;1.10;;;12.90;98.20;;;;;;4983274;28;21141;-76
2023/05/11 04:38:17;;;;;;;1.50;1.03;;;13.00;98.20;;;;;;4963766;28;20576;-79
2023/05/11 04:40:44;;;;;;;1.50;1.10;;;13.00;98.20;;;;;;4979229;28;21144;-79
2023/05/11 04:43:11;;;;;;;1.50;1.03;;;13.00;98.20;;;;;;4956217;28;20489;-77
2023/05/11 04:45:38;;;;;;;1.57;1.10;;;13.00;98.20;;;;;;4978671;28;20481;-79
2023/05/11 04:48:05;;;;;;;1.50;1.00;;;13.00;98.20;;;;;;4967529;28;20573;-77
2023/05/11 04:50:32;;;;;;;1.53;1.10;;;13.10;98.20;;;;;;4965453;28;20915;-78
2023/05/11 04:52:59;;;;;;;1.50;1.00;;;13.10;98.20;;;;;;4966181;28;20478;-79
2023/05/11 04:55:27;;;;;;;1.50;1.10;;;13.10;98.20;;;;;;4977924;28;20528;-78
2023/05/11 04:57:54;;;;;;;1.50;1.00;;;13.10;98.20;;;;;;4962729;28;20547;-77
2023/05/11 05:00:24;;;;;;;1.57;1.00;;;13.20;98.20;;;;;;4981289;28;20481;-77
2023/05/11 05:02:51;;;;;;;1.50;1.00;;;13.20;98.20;;;;;;4953580;28;20485;-78
2023/05/11 05:05:18;;;;;;;1.57;1.00;;;13.30;98.20;;;;;;4970532;28;20490;-77
2023/05/11 05:07:44;;;;;;;1.53;1.10;;;13.30;98.20;;;;;;4954488;28;21038;-78
2023/05/11 05:10:11;;;;;;;1.53;1.03;;;13.40;98.20;;;;;;4977868;28;20841;-76
2023/05/11 05:12:40;;;;;;;1.50;1.00;;;13.40;98.20;;;;;;4953916;28;20536;-77
2023/05/11 05:15:08;;;;;;;1.53;1.00;;;13.50;98.20;;;;;;4968448;28;20481;-78
2023/05/11 05:17:35;;;;;;;1.50;1.00;;;13.50;98.20;;;;;;4953827;28;20539;-78
2023/05/11 05:20:03;;;;;;;1.53;1.00;;;13.60;98.20;;;;;;4973245;28;20481;-77
2023/05/11 05:22:30;;;;;;;1.50;1.00;;;13.60;98.20;;;;;;4960033;28;20807;-75
2023/05/11 05:24:57;;;;;;;1.50;0.90;;;13.70;98.20;;;;;;4976091;28;20493;-77
2023/05/11 05:27:24;;;;;;;1.53;1.10;;;13.70;98.20;;;;;;4959025;28;20600;-77
2023/05/11 05:29:52;;;;;;;1.50;1.00;;;13.80;98.20;;;;;;4975582;28;20619;-76
2023/05/11 05:32:19;;;;;;;1.53;1.10;;;13.80;98.20;;;;;;4963796;28;20525;-77
2023/05/11 05:34:46;;;;;;;1.50;1.00;;;13.80;98.20;;;;;;4976301;28;20609;-77
2023/05/11 05:37:13;;;;;;;1.50;1.00;;;13.80;98.20;;;;;;4960535;28;20780;-78
2023/05/11 05:39:40;;;;;;;1.57;1.00;;;13.80;98.20;;;;;;4977635;28;20490;-77
2023/05/11 05:42:07;;;;;;;1.57;1.00;;;13.90;98.20;;;;;;4972423;28;20824;-79
2023/05/11 05:44:34;;;;;;;2.00;1.73;;;14.00;98.20;;;;;;4988617;28;20485;-78
2023/05/11 05:47:02;;;;;;;1.50;1.10;;;14.00;98.20;;;;;;4957714;28;20482;-78
2023/05/11 05:49:29;;;;;;;1.50;1.00;;;14.00;98.20;;;;;;4973459;28;20996;-78
2023/05/11 05:51:56;;;;;;;1.53;1.00;;;14.10;98.20;;;;;;4968733;28;20590;-77
2023/05/11 05:54:22;;;;;;;1.60;1.10;;;14.10;98.20;;;;;;4975454;28;20495;-77
2023/05/11 05:56:50;;;;;;;1.50;1.00;;;14.20;98.20;;;;;;4957584;28;20498;-79
2023/05/11 05:59:18;;;;;;;1.50;1.00;;;14.20;98.20;;;;;;4971583;28;20493;-77
2023/05/11 06:01:46;;;;;;;1.50;1.00;;;14.30;98.20;;;;;;4970739;28;20482;-78
2023/05/11 06:04:14;;;;;;;1.53;1.00;;;14.40;98.20;;;;;;4976863;28;20581;-79
2023/05/11 06:06:41;;;;;;;1.53;1.00;;;14.40;98.20;;;;;;4961633;28;20486;-78
2023/05/11 06:09:08;;;;;;;1.53;1.00;;;14.50;98.20;;;;;;4976043;28;20948;-78
2023/05/11 06:11:35;;;;;;;1.50;1.10;;;14.60;98.20;;;;;;4965330;28;20497;-77
2023/05/11 06:14:02;;;;;;;1.50;1.00;;;14.70;98.20;;;;;;4970614;28;20478;-77
2023/05/11 06:16:29;;;;;;;1.50;0.90;;;14.80;98.20;;;;;;4961094;28;20581;-76
2023/05/11 06:18:56;;;;;;;1.50;0.97;;;14.90;98.20;;;;;;4973111;28;20547;-77
2023/05/11 06:21:25;;;;;;;1.53;1.00;;;15.00;98.20;;;;;;4968553;28;20497;-79
2023/05/11 06:23:52;;;;;;;1.50;1.00;;;15.10;98.20;;;;;;4976337;28;20474;-78
2023/05/11 06:26:20;;;;;;;1.57;1.00;;;15.20;98.20;;;;;;4968272;28;20476;-78
2023/05/11 06:28:46;;;;;;;1.53;1.00;;;15.20;98.20;;;;;;4978050;28;20458;-77
2023/05/11 06:31:14;;;;;;;1.53;1.00;;;15.30;98.20;;;;;;4967188;28;20486;-77
2023/05/11 06:33:41;;;;;;;1.57;1.00;;;15.30;98.20;;;;;;4975250;28;20473;-77
2023/05/11 06:36:08;;;;;;;1.53;1.00;;;15.30;98.20;;;;;;4986304;28;20521;-77
2023/05/11 06:38:36;;;;;;;1.53;1.00;;;15.40;98.20;;;;;;4963484;28;20765;-77
2023/05/11 06:41:03;;;;;;;1.50;1.00;;;15.50;98.20;;;;;;4959373;28;20472;-76
2023/05/11 06:43:30;;;;;;;1.57;0.93;;;15.50;98.20;;;;;;4974915;28;20477;-77
2023/05/11 06:45:56;;;;;;;1.57;1.00;;;15.60;98.20;;;;;;4963843;28;20492;-77
2023/05/11 06:48:24;;;;;;;1.50;1.00;;;15.70;98.20;;;;;;4968111;28;20470;-78
2023/05/11 06:50:51;;;;;;;1.57;0.97;;;15.80;98.20;;;;;;4972148;28;20475;-77
2023/05/11 06:53:18;;;;;;;1.50;1.00;;;15.90;98.20;;;;;;4964490;28;20633;-77
2023/05/11 06:55:46;;;;;;;1.50;0.97;;;15.90;98.20;;;;;;4977808;28;20485;-77
2023/05/11 06:58:13;;;;;;;1.50;1.00;;;16.00;98.20;;;;;;4948594;28;20482;-77
2023/05/11 07:00:41;;;;;;;1.50;1.00;;;16.10;98.20;;;;;;4974331;28;20498;-77
2023/05/11 07:03:08;;;;;;;1.53;1.00;;;16.20;98.20;;;;;;4971394;28;20516;-77
2023/05/11 07:05:36;;;;;;;1.50;0.93;;;16.30;98.20;;;;;;4973085;28;20544;-77
2023/05/11 07:08:03;;;;;;;1.53;1.00;;;16.50;98.20;;;;;;4964454;28;20470;-77
2023/05/11 07:10:31;;;;;;;1.50;0.90;;;16.60;98.20;;;;;;4980283;28;20456;-77
2023/05/11 07:12:59;;;;;;;1.50;1.00;;;16.80;98.20;;;;;;4971696;28;20494;-77
2023/05/11 07:15:26;;;;;;;1.50;1.00;;;16.90;98.20;;;;;;4973666;28;20998;-77
2023/05/11 07:17:53;;;;;;;1.53;0.90;;;17.00;98.20;;;;;;4964746;28;20925;-77
2023/05/11 07:20:20;;;;;;;1.57;0.90;;;17.20;98.20;;;;;;4974702;28;20486;-77
2023/05/11 07:22:47;;;;;;;1.50;0.90;;;17.30;98.20;;;;;;4966869;28;20539;-76
2023/05/11 07:25:14;;;;;;;1.53;1.00;;;17.50;98.20;;;;;;4981519;28;20492;-78
2023/05/11 07:27:41;;;;;;;1.50;0.90;;;17.60;98.20;;;;;;4965819;28;20494;-77
2023/05/11 07:30:10;;;;;;;1.50;0.90;;;17.90;98.20;;;;;;4986961;28;20464;-77
2023/05/11 07:32:37;;;;;;;1.50;0.90;;;18.10;98.20;;;;;;4955220;28;20483;-78
2023/05/11 07:35:05;;;;;;;1.50;0.90;;;18.40;98.20;;;;;;4982866;28;21003;-78
2023/05/11 07:37:31;;;;;;;1.50;0.90;;;18.60;98.20;;;;;;4952632;28;20483;-77
2023/05/11 07:39:58;;;;;;;1.53;0.90;;;18.90;98.20;;;;;;4995729;28;20508;-78
2023/05/11 07:42:26;;;;;;;1.53;0.90;;;19.10;98.20;;;;;;4950898;28;20490;-77
2023/05/11 07:44:53;;;;;;;1.50;0.90;;;19.10;98.20;;;;;;4990150;28;20517;-78
2023/05/11 07:47:22;;;;;;;1.53;0.90;;;19.10;98.20;;;;;;4966541;28;20493;-77
2023/05/11 07:49:49;;;;;;;1.50;0.90;;;19.00;98.20;;;;;;4985429;28;20465;-78
2023/05/11 07:52:16;;;;;;;1.60;1.10;;;19.00;98.20;;;;;;4970334;28;20995;-79
2023/05/11 07:54:43;;;;;;;1.50;0.90;;;18.90;98.20;;;;;;4993447;28;20478;-77
2023/05/11 07:57:12;;;;;;;1.50;1.00;;;18.80;98.20;;;;;;4965975;28;20489;-78
2023/05/11 07:59:40;;;;;;;1.57;1.00;;;18.70;98.20;;;;;;4977212;28;20652;-78
2023/05/11 08:02:08;;;;;;;1.60;1.10;;;18.70;98.20;;;;;;4960098;28;20998;-78
2023/05/11 08:04:36;;;;;;;1.50;0.90;;;18.80;98.20;;;;;;4975469;28;20573;-77
2023/05/11 08:07:04;;;;;;;1.50;0.90;;;19.00;98.20;;;;;;4964714;28;21021;-77
2023/05/11 08:09:31;;;;;;;1.50;0.93;;;19.10;98.20;;;;;;4975906;28;20866;-78
2023/05/11 08:12:00;;;;;;;1.50;0.90;;;19.00;98.20;;;;;;4963038;28;20481;-78
2023/05/11 08:14:27;;;;;;;1.50;0.90;;;19.00;98.20;;;;;;4975740;28;20489;-78
2023/05/11 08:16:54;;;;;;;1.53;0.90;;;18.90;98.20;;;;;;4971659;28;20478;-78
2023/05/11 08:19:20;;;;;;;1.50;0.90;;;18.80;98.20;;;;;;4977961;28;20525;-79
2023/05/11 08:21:49;;;;;;;1.50;0.90;;;18.80;98.20;;;;;;4969740;28;20475;-79
2023/05/11 08:24:15;;;;;;;1.50;0.90;;;18.70;98.20;;;;;;4971625;28;20999;-78
2023/05/11 08:26:43;;;;;;;1.53;0.90;;;18.70;98.20;;;;;;4965109;28;20514;-78
2023/05/11 08:29:11;;;;;;;1.83;1.37;;;18.60;98.20;;;;;;4973686;28;20771;-79
2023/05/11 08:31:38;;;;;;;1.50;0.90;;;18.50;98.20;;;;;;4965661;28;20479;-77
2023/05/11 08:34:05;;;;;;;1.50;0.90;;;18.40;98.20;;;;;;4975457;28;20580;-78
2023/05/11 08:36:32;;;;;;;1.50;0.90;;;18.30;98.20;;;;;;4958712;28;20483;-77
2023/05/11 08:39:00;;;;;;;1.50;0.90;;;18.30;98.20;;;;;;4985218;28;20763;-77
2023/05/11 08:41:27;;;;;;;1.50;0.90;;;18.30;98.20;;;;;;4970665;28;20474;-79
2023/05/11 08:43:56;;;;;;;1.50;0.90;;;18.20;98.20;;;;;;4988832;28;20946;-79
2023/05/11 08:46:25;;;;;;;1.50;0.90;;;18.20;98.20;;;;;;4964003;28;21129;-78
2023/05/11 08:48:52;;;;;;;1.50;0.90;;;18.30;98.20;;;;;;4989191;28;20461;-77
2023/05/11 08:51:19;;;;;;;1.50;0.90;;;18.30;98.20;;;;;;4974099;28;20475;-79
2023/05/11 08:53:46;;;;;;;1.50;0.90;;;18.30;98.20;;;;;;4975807;28;20573;-78
2023/05/11 08:56:16;;;;;;;1.50;0.90;;;18.30;98.20;;;;;;4971593;28;20486;-78
2023/05/11 08:58:43;;;;;;;1.50;0.90;;;18.30;98.20;;;;;;4969123;28;20485;-79
2023/05/11 09:01:12;;;;;;;1.50;0.90;;;18.30;98.20;;;;;;4959014;28;21232;-79
2023/05/11 09:03:40;;;;;;;1.50;0.90;;;18.20;98.20;;;;;;4967485;28;20505;-78
2023/05/11 09:06:08;;;;;;;1.50;0.90;;;18.20;98.20;;;;;;4972851;28;20498;-78
2023/05/11 09:08:37;;;;;;;1.50;0.90;;;18.20;98.20;;;;;;4973948;28;20963;-77
2023/05/11 09:11:04;;;;;;;1.50;0.90;;;18.30;98.20;;;;;;4967552;28;20481;-78
2023/05/11 09:13:33;;;;;;;1.50;0.90;;;18.30;98.20;;;;;;4963200;28;20465;-78
2023/05/11 09:16:00;;;;;;;1.50;0.90;;;18.30;98.20;;;;;;4983692;28;20475;-77
2023/05/11 09:18:27;;;;;;;1.50;0.90;;;18.30;98.20;;;;;;4977470;28;20462;-78
2023/05/11 09:20:54;;;;;;;1.50;0.90;;;18.40;98.20;;;;;;4949979;28;20792;-78
2023/05/11 09:23:26;;;;;;;1.50;0.90;;;18.50;98.20;;;;;;4972368;28;20461;-76
2023/05/11 09:25:53;;;;;;;1.50;0.90;;;18.60;98.20;;;;;;4967892;28;20572;-78
2023/05/11 09:28:21;;;;;;;1.50;0.90;;;18.80;98.20;;;;;;4967329;28;20857;-79
2023/05/11 09:30:49;;;;;;;1.50;0.93;;;19.00;98.20;;;;;;4963630;28;20462;-78
2023/05/11 09:33:22;;;;;;;1.50;0.90;;;19.20;98.20;;;;;;4971021;28;20533;-77
2023/05/11 09:35:49;;;;;;;1.50;0.90;;;19.30;98.20;;;;;;4970016;28;20555;-78
2023/05/11 09:38:18;;;;;;;1.53;0.90;;;19.40;98.20;;;;;;4974689;28;20712;-78
2023/05/11 09:40:52;;;;;;;1.50;0.90;;;19.50;98.20;;;;;;4980884;28;20486;-79
2023/05/11 09:43:21;;;;;;;1.50;0.90;;;19.60;98.20;;;;;;4945127;28;20488;-78
2023/05/11 09:45:51;;;;;;;1.50;0.90;;;19.70;98.20;;;;;;4969403;28;20972;-79
2023/05/11 09:48:28;;;;;;;1.50;0.90;;;19.70;98.20;;;;;;4967521;28;20464;-80
2023/05/11 09:51:05;;;;;;;1.50;0.90;;;19.70;98.20;;;;;;4964817;28;20553;-79
2023/05/11 09:53:41;;;;;;;1.50;0.90;;;19.70;98.20;;;;;;4971993;28;20461;-80
2023/05/11 09:56:09;;;;;;;1.50;0.90;;;19.60;98.20;;;;;;4964625;28;20500;-79
2023/05/11 09:58:57;;;;;;;1.50;1.00;;;19.50;98.20;;;;;;4964423;28;20478;-79
2023/05/11 10:01:32;;;;;;;1.50;0.90;;;19.30;98.20;;;;;;4950820;28;20482;-79
2023/05/11 10:04:01;;;;;;;1.50;0.90;;;19.10;98.20;;;;;;4987498;28;20460;-80
2023/05/11 10:06:42;;;;;;;1.50;0.90;;;18.90;98.20;;;;;;4971821;28;20470;-79
2023/05/11 10:09:09;;;;;;;1.50;0.90;;;18.80;98.20;;;;;;4957188;28;20475;-79
2023/05/11 10:11:42;;;;;;;1.50;0.90;;;18.60;98.20;;;;;;4960350;28;20501;-78
2023/05/11 10:14:11;;;;;;;1.50;0.90;;;18.50;98.20;;;;;;4970708;28;20481;-79
2023/05/11 10:16:40;;;;;;;1.50;0.90;;;18.40;98.20;;;;;;4964178;28;20796;-79
2023/05/11 10:19:08;;;;;;;1.50;0.90;;;18.30;98.20;;;;;;4972952;28;20466;-79
2023/05/11 10:21:35;;;;;;;1.50;0.90;;;18.30;98.20;;;;;;4965806;28;20487;-80
2023/05/11 10:24:03;;;;;;;1.50;0.90;;;18.30;98.20;;;;;;4972678;28;20469;-79
2023/05/11 10:26:30;;;;;;;1.60;1.20;;;18.30;98.20;;;;;;4969290;28;20504;-78
2023/05/11 10:29:03;;;;;;;1.50;0.90;;;18.30;98.20;;;;;;4968196;28;20844;-78
2023/05/11 10:31:32;;;;;;;1.90;1.30;;;18.30;98.20;;;;;;4965575;28;20487;-79
2023/05/11 10:34:02;;;;;;;1.50;0.90;;;18.30;98.20;;;;;;4967451;28;20543;-78
2023/05/11 10:36:36;;;;;;;1.50;0.90;;;18.40;98.20;;;;;;4973115;28;20940;-79
2023/05/11 10:39:25;;;;;;;1.50;0.90;;;18.50;98.20;;;;;;4963019;28;20503;-80
2023/05/11 10:42:10;;;;;;;1.50;0.90;;;18.50;98.20;;;;;;4978850;28;20993;-80
2023/05/11 10:45:11;;;;;;;1.50;0.90;;;18.50;98.20;;;;;;4981436;28;20524;-79
2023/05/11 10:48:32;;;;;;;1.50;0.90;;;18.50;98.20;;;;;;4963310;28;20554;-80
2023/05/11 10:51:27;;;;;;;1.50;0.90;;;18.60;98.20;;;;;;4967678;28;20907;-80
2023/05/11 10:54:16;;;;;;;1.50;0.90;;;18.80;98.20;;;;;;4959731;28;20667;-80
2023/05/11 10:57:08;;;;;;;1.50;0.90;;;18.90;98.20;;;;;;4960395;28;20585;-80
2023/05/11 10:59:51;;;;;;;1.50;0.90;;;18.90;98.20;;;;;;4970217;28;20468;-80
2023/05/11 11:03:16;;;;;;;1.50;0.90;;;19.00;98.20;;;;;;4956233;28;20485;-81
2023/05/11 11:08:28;;;;;;;1.50;0.90;;;19.20;98.20;;;;;;4861036;29;20488;-81
2023/05/11 11:10:56;;;;;;;1.50;0.90;;;19.20;98.20;;;;;;4917984;28;20479;-81
2023/05/11 11:17:25;;;;;;;1.50;1.00;;;19.60;98.20;;;;;;4970095;28;20493;-81
2023/05/11 11:19:53;;;;;;;1.50;0.90;;;19.90;98.20;;;;;;4993194;28;20860;-80
2023/05/11 11:22:45;;;;;;;1.93;1.73;;;20.10;98.20;;;;;;4962300;28;20490;-81
2023/05/11 11:26:18;;;;;;;1.50;0.90;;;20.30;98.20;;;;;;4977281;28;20508;-80
2023/05/11 11:29:18;;;;;;;;;;;;;;;;;;;;;
2023/05/11 11:31:45;;;;;;;1.50;0.90;;;20.90;98.00;;;;;;4969707;28;20588;-80
2023/05/11 11:38:31;;;;;;;1.50;0.90;;;21.50;97.00;;;;;;4993312;28;20488;-81
2023/05/11 11:41:02;;;;;;;1.50;0.90;;;21.70;95.20;;;;;;4981532;28;20937;-79
2023/05/11 11:43:42;;;;;;;1.50;0.90;;;21.60;94.60;;;;;;4976868;28;20470;-80
2023/05/11 11:46:25;;;;;;;1.50;1.00;;;21.60;95.50;;;;;;4971675;28;20493;-79
2023/05/11 11:49:06;;;;;;;1.50;0.87;;;21.70;96.40;;;;;;4976289;28;20466;-79
2023/05/11 11:51:34;;;;;;;1.50;0.90;;;21.80;96.10;;;;;;4962644;28;20554;-79
2023/05/11 11:54:01;;;;;;;1.50;0.90;;;21.80;95.90;;;;;;4970585;28;20470;-78
2023/05/11 11:56:49;;;;;;;1.50;0.90;;;21.90;97.10;;;;;;4971082;28;21083;-79
2023/05/11 11:59:27;;;;;;;1.50;0.90;;;22.00;94.30;;;;;;4975157;28;20496;-82
2023/05/11 12:01:55;;;;;;;1.50;0.90;;;21.90;94.90;;;;;;4968153;28;20546;-82
2023/05/11 12:04:42;;;;;;;1.50;0.90;;;21.80;96.10;;;;;;4972235;28;20489;-80
2023/05/11 12:07:12;;;;;;;1.50;0.90;;;21.80;95.00;;;;;;4962476;28;20494;-80
2023/05/11 12:09:40;;;;;;;1.50;0.90;;;21.80;94.10;;;;;;4980121;28;20585;-80
2023/05/11 12:12:12;;;;;;;1.50;0.90;;;21.80;96.00;;;;;;4964132;28;20482;-80
2023/05/11 12:14:43;;;;;;;1.60;1.30;;;21.80;94.50;;;;;;4987124;28;20573;-79
2023/05/11 12:17:14;;;;;;;1.50;0.90;;;21.90;95.70;;;;;;4967571;28;20587;-80
2023/05/11 12:19:58;;;;;;;1.50;0.90;;;22.00;95.50;;;;;;4986656;28;20523;-82
2023/05/11 12:22:50;;;;;;;1.50;0.90;;;22.10;96.20;;;;;;4949982;28;20475;-80
2023/05/11 12:25:35;;;;;;;;;;;;;;;;;;;;;
2023/05/11 12:28:04;;;;;;;1.50;0.90;;;22.30;95.70;;;;;;4923146;28;20978;-80
2023/05/11 12:30:33;;;;;;;1.50;0.80;;;22.20;94.10;;;;;;4955034;28;20490;-80
2023/05/11 12:33:03;;;;;;;1.50;0.90;;;21.90;94.30;;;;;;4970917;28;20512;-80
2023/05/11 12:38:56;;;;;;;1.50;0.90;;;21.50;96.80;;;;;;4955928;28;20994;-80
2023/05/11 12:41:24;;;;;;;1.47;0.87;;;21.40;97.70;;;;;;4963335;28;20469;-80
2023/05/11 12:43:54;;;;;;;3.50;1.93;;;21.30;97.70;;;;;;4984277;28;20472;-80
2023/05/11 12:46:21;;;;;;;1.50;1.00;;;21.20;97.20;;;;;;4970124;28;20483;-81
2023/05/11 12:48:59;;;;;;;1.50;0.90;;;21.10;98.10;;;;;;4971882;28;20466;-81
2023/05/11 12:51:49;;;;;;;1.47;0.80;;;21.10;98.20;;;;;;4971593;28;20487;-81
2023/05/11 12:54:50;;;;;;;1.50;0.90;;;21.10;98.20;;;;;;4997496;28;20484;-80
2023/05/11 12:57:24;;;;;;;1.47;0.90;;;20.90;98.20;;;;;;4981250;28;20516;-80
2023/05/11 13:00:12;;;;;;;1.50;0.90;;;20.90;98.20;;;;;;4979408;28;20533;-80
2023/05/11 13:02:49;;;;;;;1.47;0.90;;;20.90;98.20;;;;;;4963780;28;20690;-81
2023/05/11 13:05:17;;;;;;;1.47;0.90;;;20.90;98.20;;;;;;4979573;28;20481;-80
2023/05/11 13:07:45;;;;;;;1.50;0.90;;;20.90;98.20;;;;;;4962541;28;20474;-80
2023/05/11 13:10:13;;;;;;;1.50;0.90;;;21.00;98.20;;;;;;4976437;28;20465;-81
2023/05/11 13:12:51;;;;;;;1.50;0.90;;;21.00;97.70;;;;;;4960482;28;20486;-80
2023/05/11 13:15:20;;;;;;;1.47;0.90;;;21.00;98.10;;;;;;4982172;28;20862;-80
2023/05/11 13:17:49;;;;;;;1.50;0.90;;;20.90;97.10;;;;;;4969275;28;20818;-81
2023/05/11 13:21:04;;;;;;;1.50;0.90;;;20.80;96.60;;;;;;5005422;28;20501;-79